sensor_id;sensor_type;location;lat;lon;timestamp;temperature;humidity
4308;DHT22;2167;53.448;9.984;2022-12-13T00:01:25;-5.00;17.50
4308;DHT22;2167;53.448;9.984;2022-12-13T00:03:52;-5.00;16.70
4308;DHT22;2167;53.448;9.984;2022-12-13T00:06:18;-5.00;16.00
4308;DHT22;2167;53.448;9.984;2022-12-13T00:08:44;-5.10;15.30
4308;DHT22;2167;53.448;9.984;2022-12-13T00:11:11;-5.20;14.40
4308;DHT22;2167;53.448;9.984;2022-12-13T00:13:38;-5.30;13.70
4308;DHT22;2167;53.448;9.984;2022-12-13T00:16:06;-5.30;13.30
4308;DHT22;2167;53.448;9.984;2022-12-13T00:18:32;-5.40;13.20
4308;DHT22;2167;53.448;9.984;2022-12-13T00:20:58;-5.40;13.00
4308;DHT22;2167;53.448;9.984;2022-12-13T00:23:23;-5.40;12.50
4308;DHT22;2167;53.448;9.984;2022-12-13T00:25:49;-5.40;12.20
4308;DHT22;2167;53.448;9.984;2022-12-13T00:28:15;-5.40;12.30
4308;DHT22;2167;53.448;9.984;2022-12-13T00:30:41;-5.40;12.30
4308;DHT22;2167;53.448;9.984;2022-12-13T00:33:07;-5.50;12.60
4308;DHT22;2167;53.448;9.984;2022-12-13T00:35:38;-5.40;12.80
4308;DHT22;2167;53.448;9.984;2022-12-13T00:38:04;-5.40;12.90
4308;DHT22;2167;53.448;9.984;2022-12-13T00:40:29;-5.40;12.90
4308;DHT22;2167;53.448;9.984;2022-12-13T00:42:55;-5.40;12.70
4308;DHT22;2167;53.448;9.984;2022-12-13T00:45:20;-5.40;12.20
4308;DHT22;2167;53.448;9.984;2022-12-13T00:47:46;-5.50;12.10
4308;DHT22;2167;53.448;9.984;2022-12-13T00:50:12;-5.50;12.10
4308;DHT22;2167;53.448;9.984;2022-12-13T00:52:38;-5.40;12.20
4308;DHT22;2167;53.448;9.984;2022-12-13T00:55:04;-5.40;12.20
4308;DHT22;2167;53.448;9.984;2022-12-13T00:57:29;-5.30;11.90
4308;DHT22;2167;53.448;9.984;2022-12-13T00:59:55;-5.40;11.00
4308;DHT22;2167;53.448;9.984;2022-12-13T01:02:21;-5.40;11.10
4308;DHT22;2167;53.448;9.984;2022-12-13T01:04:48;-5.30;11.10
4308;DHT22;2167;53.448;9.984;2022-12-13T01:07:17;-5.30;11.00
4308;DHT22;2167;53.448;9.984;2022-12-13T01:09:43;-5.30;11.40
4308;DHT22;2167;53.448;9.984;2022-12-13T01:12:09;-5.30;11.90
4308;DHT22;2167;53.448;9.984;2022-12-13T01:14:37;-5.40;12.80
4308;DHT22;2167;53.448;9.984;2022-12-13T01:17:03;-5.50;12.80
4308;DHT22;2167;53.448;9.984;2022-12-13T01:19:29;-5.50;13.50
4308;DHT22;2167;53.448;9.984;2022-12-13T01:21:56;-5.50;14.30
4308;DHT22;2167;53.448;9.984;2022-12-13T01:28:08;-5.50;14.30
4308;DHT22;2167;53.448;9.984;2022-12-13T01:30:34;-5.50;13.80
4308;DHT22;2167;53.448;9.984;2022-12-13T01:32:59;-5.50;14.00
4308;DHT22;2167;53.448;9.984;2022-12-13T01:35:25;-5.50;13.90
4308;DHT22;2167;53.448;9.984;2022-12-13T01:37:50;-5.50;14.10
4308;DHT22;2167;53.448;9.984;2022-12-13T01:40:22;-5.60;14.50
4308;DHT22;2167;53.448;9.984;2022-12-13T01:42:48;-5.60;15.00
4308;DHT22;2167;53.448;9.984;2022-12-13T01:45:36;-5.50;16.20
4308;DHT22;2167;53.448;9.984;2022-12-13T01:48:11;-5.40;17.10
4308;DHT22;2167;53.448;9.984;2022-12-13T01:50:42;-5.40;16.30
4308;DHT22;2167;53.448;9.984;2022-12-13T01:53:12;-5.40;16.20
4308;DHT22;2167;53.448;9.984;2022-12-13T01:55:40;-5.30;16.20
4308;DHT22;2167;53.448;9.984;2022-12-13T01:58:07;-5.30;15.80
4308;DHT22;2167;53.448;9.984;2022-12-13T02:00:34;-5.30;15.00
4308;DHT22;2167;53.448;9.984;2022-12-13T02:03:01;-5.30;14.20
4308;DHT22;2167;53.448;9.984;2022-12-13T02:05:33;-5.30;14.00
4308;DHT22;2167;53.448;9.984;2022-12-13T02:08:01;-5.30;13.90
4308;DHT22;2167;53.448;9.984;2022-12-13T02:10:28;-5.30;13.70
4308;DHT22;2167;53.448;9.984;2022-12-13T02:12:54;-5.30;14.00
4308;DHT22;2167;53.448;9.984;2022-12-13T02:15:20;-5.30;13.60
4308;DHT22;2167;53.448;9.984;2022-12-13T02:34:29;-5.40;10.00
4308;DHT22;2167;53.448;9.984;2022-12-13T02:37:27;-5.40;10.30
4308;DHT22;2167;53.448;9.984;2022-12-13T02:40:04;-5.50;11.10
4308;DHT22;2167;53.448;9.984;2022-12-13T02:42:46;-5.40;11.90
4308;DHT22;2167;53.448;9.984;2022-12-13T02:45:17;-5.40;12.40
4308;DHT22;2167;53.448;9.984;2022-12-13T02:47:44;-5.40;12.20
4308;DHT22;2167;53.448;9.984;2022-12-13T02:50:12;-5.40;12.80
4308;DHT22;2167;53.448;9.984;2022-12-13T02:52:39;-5.30;12.90
4308;DHT22;2167;53.448;9.984;2022-12-13T02:55:10;-5.20;13.00
4308;DHT22;2167;53.448;9.984;2022-12-13T02:57:40;-5.30;13.10
4308;DHT22;2167;53.448;9.984;2022-12-13T03:08:12;-5.10;14.80
4308;DHT22;2167;53.448;9.984;2022-12-13T03:11:04;-5.10;14.70
4308;DHT22;2167;53.448;9.984;2022-12-13T03:13:41;-5.10;15.00
4308;DHT22;2167;53.448;9.984;2022-12-13T03:16:20;-5.10;15.50
4308;DHT22;2167;53.448;9.984;2022-12-13T03:18:53;-5.10;15.80
4308;DHT22;2167;53.448;9.984;2022-12-13T03:21:19;-5.00;16.50
4308;DHT22;2167;53.448;9.984;2022-12-13T03:23:45;-4.90;17.10
4308;DHT22;2167;53.448;9.984;2022-12-13T03:26:15;-4.80;16.70
4308;DHT22;2167;53.448;9.984;2022-12-13T03:28:41;-4.90;15.80
4308;DHT22;2167;53.448;9.984;2022-12-13T03:31:07;-4.90;15.60
4308;DHT22;2167;53.448;9.984;2022-12-13T03:33:33;-4.90;15.60
4308;DHT22;2167;53.448;9.984;2022-12-13T03:36:00;-4.80;15.50
4308;DHT22;2167;53.448;9.984;2022-12-13T03:38:26;-4.80;15.10
4308;DHT22;2167;53.448;9.984;2022-12-13T03:40:56;-4.80;14.10
4308;DHT22;2167;53.448;9.984;2022-12-13T03:43:24;-4.80;13.40
4308;DHT22;2167;53.448;9.984;2022-12-13T03:45:53;-4.90;13.00
4308;DHT22;2167;53.448;9.984;2022-12-13T03:48:19;-4.90;13.00
4308;DHT22;2167;53.448;9.984;2022-12-13T03:50:46;-4.90;13.30
4308;DHT22;2167;53.448;9.984;2022-12-13T03:53:11;-5.00;13.80
4308;DHT22;2167;53.448;9.984;2022-12-13T03:55:37;-4.90;14.60
4308;DHT22;2167;53.448;9.984;2022-12-13T03:58:03;-4.80;15.40
4308;DHT22;2167;53.448;9.984;2022-12-13T04:00:29;-4.80;15.70
4308;DHT22;2167;53.448;9.984;2022-12-13T04:02:54;-4.80;15.80
4308;DHT22;2167;53.448;9.984;2022-12-13T04:05:20;-4.80;16.00
4308;DHT22;2167;53.448;9.984;2022-12-13T04:07:47;-4.70;16.20
4308;DHT22;2167;53.448;9.984;2022-12-13T04:10:12;-4.70;16.10
4308;DHT22;2167;53.448;9.984;2022-12-13T04:12:38;-4.60;16.00
4308;DHT22;2167;53.448;9.984;2022-12-13T04:15:22;-4.60;15.80
4308;DHT22;2167;53.448;9.984;2022-12-13T04:17:48;-4.60;15.60
4308;DHT22;2167;53.448;9.984;2022-12-13T04:20:13;-4.60;14.90
4308;DHT22;2167;53.448;9.984;2022-12-13T04:22:39;-4.60;14.90
4308;DHT22;2167;53.448;9.984;2022-12-13T04:25:06;-4.60;14.90
4308;DHT22;2167;53.448;9.984;2022-12-13T04:27:31;-4.50;15.20
4308;DHT22;2167;53.448;9.984;2022-12-13T04:29:57;-4.50;14.90
4308;DHT22;2167;53.448;9.984;2022-12-13T04:32:23;-4.50;15.00
4308;DHT22;2167;53.448;9.984;2022-12-13T04:34:48;-4.40;15.10
4308;DHT22;2167;53.448;9.984;2022-12-13T04:37:14;-4.40;15.10
4308;DHT22;2167;53.448;9.984;2022-12-13T04:39:40;-4.40;15.30
4308;DHT22;2167;53.448;9.984;2022-12-13T04:42:05;-4.30;15.50
4308;DHT22;2167;53.448;9.984;2022-12-13T04:44:31;-4.30;15.60
4308;DHT22;2167;53.448;9.984;2022-12-13T04:46:57;-4.20;15.90
4308;DHT22;2167;53.448;9.984;2022-12-13T04:49:22;-4.10;16.40
4308;DHT22;2167;53.448;9.984;2022-12-13T04:51:48;-4.00;16.40
4308;DHT22;2167;53.448;9.984;2022-12-13T04:54:14;-4.00;16.20
4308;DHT22;2167;53.448;9.984;2022-12-13T04:56:39;-4.00;16.10
4308;DHT22;2167;53.448;9.984;2022-12-13T04:59:05;-4.00;15.90
4308;DHT22;2167;53.448;9.984;2022-12-13T05:01:31;-4.00;15.60
4308;DHT22;2167;53.448;9.984;2022-12-13T05:03:56;-3.90;15.70
4308;DHT22;2167;53.448;9.984;2022-12-13T05:06:22;-3.90;16.10
4308;DHT22;2167;53.448;9.984;2022-12-13T05:08:48;-3.80;16.40
4308;DHT22;2167;53.448;9.984;2022-12-13T05:11:13;-3.70;16.40
4308;DHT22;2167;53.448;9.984;2022-12-13T05:13:39;-3.70;16.30
4308;DHT22;2167;53.448;9.984;2022-12-13T05:16:06;-3.60;16.20
4308;DHT22;2167;53.448;9.984;2022-12-13T05:18:34;-3.60;16.10
4308;DHT22;2167;53.448;9.984;2022-12-13T05:21:08;-3.60;16.00
4308;DHT22;2167;53.448;9.984;2022-12-13T05:23:33;-3.60;15.80
4308;DHT22;2167;53.448;9.984;2022-12-13T05:25:59;-3.60;15.80
4308;DHT22;2167;53.448;9.984;2022-12-13T05:28:25;-3.60;16.00
4308;DHT22;2167;53.448;9.984;2022-12-13T05:30:55;-3.60;16.20
4308;DHT22;2167;53.448;9.984;2022-12-13T05:33:22;-3.60;16.40
4308;DHT22;2167;53.448;9.984;2022-12-13T05:35:48;-3.50;16.90
4308;DHT22;2167;53.448;9.984;2022-12-13T05:38:14;-3.50;16.90
4308;DHT22;2167;53.448;9.984;2022-12-13T05:40:39;-3.40;17.10
4308;DHT22;2167;53.448;9.984;2022-12-13T05:43:05;-3.50;17.20
4308;DHT22;2167;53.448;9.984;2022-12-13T05:45:31;-3.40;17.40
4308;DHT22;2167;53.448;9.984;2022-12-13T05:47:58;-3.40;17.50
4308;DHT22;2167;53.448;9.984;2022-12-13T05:50:24;-3.30;17.60
4308;DHT22;2167;53.448;9.984;2022-12-13T05:52:50;-3.30;17.40
4308;DHT22;2167;53.448;9.984;2022-12-13T05:55:15;-3.30;17.60
4308;DHT22;2167;53.448;9.984;2022-12-13T05:57:41;-3.30;18.00
4308;DHT22;2167;53.448;9.984;2022-12-13T06:00:08;-3.10;18.30
4308;DHT22;2167;53.448;9.984;2022-12-13T06:02:39;-3.10;18.20
4308;DHT22;2167;53.448;9.984;2022-12-13T06:05:06;-3.00;18.00
4308;DHT22;2167;53.448;9.984;2022-12-13T06:07:31;-3.00;18.00
4308;DHT22;2167;53.448;9.984;2022-12-13T06:09:57;-3.10;18.00
4308;DHT22;2167;53.448;9.984;2022-12-13T06:12:23;-3.00;18.10
4308;DHT22;2167;53.448;9.984;2022-12-13T06:14:49;-3.00;18.00
4308;DHT22;2167;53.448;9.984;2022-12-13T06:17:14;-2.90;18.20
4308;DHT22;2167;53.448;9.984;2022-12-13T06:19:40;-3.00;18.50
4308;DHT22;2167;53.448;9.984;2022-12-13T06:22:06;-2.80;18.80
4308;DHT22;2167;53.448;9.984;2022-12-13T06:24:31;-2.80;18.80
4308;DHT22;2167;53.448;9.984;2022-12-13T06:26:57;-2.80;18.70
4308;DHT22;2167;53.448;9.984;2022-12-13T06:29:24;-2.80;19.20
4308;DHT22;2167;53.448;9.984;2022-12-13T06:32:00;-2.70;18.70
4308;DHT22;2167;53.448;9.984;2022-12-13T06:34:27;-2.70;18.80
4308;DHT22;2167;53.448;9.984;2022-12-13T06:36:52;-2.60;19.00
4308;DHT22;2167;53.448;9.984;2022-12-13T06:39:18;-2.60;19.00
4308;DHT22;2167;53.448;9.984;2022-12-13T06:41:44;-2.60;18.90
4308;DHT22;2167;53.448;9.984;2022-12-13T06:44:10;-2.60;18.70
4308;DHT22;2167;53.448;9.984;2022-12-13T06:46:36;-2.60;18.60
4308;DHT22;2167;53.448;9.984;2022-12-13T06:49:01;-2.60;18.60
4308;DHT22;2167;53.448;9.984;2022-12-13T06:51:27;-2.60;18.60
4308;DHT22;2167;53.448;9.984;2022-12-13T06:53:53;-2.60;18.90
4308;DHT22;2167;53.448;9.984;2022-12-13T06:56:18;-2.60;19.20
4308;DHT22;2167;53.448;9.984;2022-12-13T06:58:44;-2.50;19.10
4308;DHT22;2167;53.448;9.984;2022-12-13T07:01:14;-2.50;19.10
4308;DHT22;2167;53.448;9.984;2022-12-13T07:03:40;-2.50;19.10
4308;DHT22;2167;53.448;9.984;2022-12-13T07:06:11;-2.40;18.80
4308;DHT22;2167;53.448;9.984;2022-12-13T07:08:38;-2.50;18.50
4308;DHT22;2167;53.448;9.984;2022-12-13T07:11:04;-2.50;18.30
4308;DHT22;2167;53.448;9.984;2022-12-13T07:13:30;-2.50;18.10
4308;DHT22;2167;53.448;9.984;2022-12-13T07:15:56;-2.50;18.20
4308;DHT22;2167;53.448;9.984;2022-12-13T07:18:22;-2.50;18.30
4308;DHT22;2167;53.448;9.984;2022-12-13T07:20:48;-2.40;18.30
4308;DHT22;2167;53.448;9.984;2022-12-13T07:23:13;-2.40;18.30
4308;DHT22;2167;53.448;9.984;2022-12-13T07:25:39;-2.40;18.30
4308;DHT22;2167;53.448;9.984;2022-12-13T07:28:08;-2.40;18.30
4308;DHT22;2167;53.448;9.984;2022-12-13T07:30:38;-2.40;18.10
4308;DHT22;2167;53.448;9.984;2022-12-13T07:33:04;-2.40;18.00
4308;DHT22;2167;53.448;9.984;2022-12-13T07:35:31;-2.40;17.70
4308;DHT22;2167;53.448;9.984;2022-12-13T07:37:57;-2.40;17.80
4308;DHT22;2167;53.448;9.984;2022-12-13T07:40:24;-2.40;18.50
4308;DHT22;2167;53.448;9.984;2022-12-13T07:42:54;-2.30;19.00
4308;DHT22;2167;53.448;9.984;2022-12-13T07:45:20;-2.30;19.00
4308;DHT22;2167;53.448;9.984;2022-12-13T07:47:46;-2.20;19.20
4308;DHT22;2167;53.448;9.984;2022-12-13T07:50:12;-2.10;19.00
4308;DHT22;2167;53.448;9.984;2022-12-13T07:52:38;-2.10;18.30
4308;DHT22;2167;53.448;9.984;2022-12-13T07:55:04;-2.20;18.00
4308;DHT22;2167;53.448;9.984;2022-12-13T07:57:30;-2.20;18.30
4308;DHT22;2167;53.448;9.984;2022-12-13T07:59:56;-2.20;18.10
4308;DHT22;2167;53.448;9.984;2022-12-13T08:02:22;-2.20;18.20
4308;DHT22;2167;53.448;9.984;2022-12-13T08:04:48;-2.10;18.50
4308;DHT22;2167;53.448;9.984;2022-12-13T08:07:14;-2.10;18.30
4308;DHT22;2167;53.448;9.984;2022-12-13T08:09:39;-2.10;18.10
4308;DHT22;2167;53.448;9.984;2022-12-13T08:12:05;-2.20;18.30
4308;DHT22;2167;53.448;9.984;2022-12-13T08:14:31;-2.20;18.50
4308;DHT22;2167;53.448;9.984;2022-12-13T08:16:56;-2.20;19.00
4308;DHT22;2167;53.448;9.984;2022-12-13T08:19:22;-2.10;19.60
4308;DHT22;2167;53.448;9.984;2022-12-13T08:21:48;-2.10;19.70
4308;DHT22;2167;53.448;9.984;2022-12-13T08:24:15;-2.10;19.30
4308;DHT22;2167;53.448;9.984;2022-12-13T08:26:41;-2.20;18.90
4308;DHT22;2167;53.448;9.984;2022-12-13T08:29:06;-2.10;19.10
4308;DHT22;2167;53.448;9.984;2022-12-13T08:31:32;-2.10;19.20
4308;DHT22;2167;53.448;9.984;2022-12-13T08:33:57;-2.10;19.30
4308;DHT22;2167;53.448;9.984;2022-12-13T08:36:23;-2.00;19.80
4308;DHT22;2167;53.448;9.984;2022-12-13T08:38:50;-2.00;19.30
4308;DHT22;2167;53.448;9.984;2022-12-13T08:41:18;-1.90;19.40
4308;DHT22;2167;53.448;9.984;2022-12-13T08:43:44;-1.90;18.70
4308;DHT22;2167;53.448;9.984;2022-12-13T08:46:10;-1.90;18.20
4308;DHT22;2167;53.448;9.984;2022-12-13T08:48:35;-1.90;17.90
4308;DHT22;2167;53.448;9.984;2022-12-13T08:51:02;-2.00;17.60
4308;DHT22;2167;53.448;9.984;2022-12-13T08:53:28;-2.00;17.90
4308;DHT22;2167;53.448;9.984;2022-12-13T08:55:59;-1.90;18.30
4308;DHT22;2167;53.448;9.984;2022-12-13T08:58:26;-2.00;18.40
4308;DHT22;2167;53.448;9.984;2022-12-13T09:00:52;-1.90;18.40
4308;DHT22;2167;53.448;9.984;2022-12-13T09:03:18;-1.80;17.80
4308;DHT22;2167;53.448;9.984;2022-12-13T09:05:44;-1.80;17.00
4308;DHT22;2167;53.448;9.984;2022-12-13T09:08:10;-1.80;16.80
4308;DHT22;2167;53.448;9.984;2022-12-13T09:10:36;-1.90;16.50
4308;DHT22;2167;53.448;9.984;2022-12-13T09:13:02;-1.90;16.70
4308;DHT22;2167;53.448;9.984;2022-12-13T09:15:30;-1.90;16.80
4308;DHT22;2167;53.448;9.984;2022-12-13T09:17:56;-1.80;16.90
4308;DHT22;2167;53.448;9.984;2022-12-13T09:20:23;-1.90;16.80
4308;DHT22;2167;53.448;9.984;2022-12-13T09:22:48;-1.90;17.00
4308;DHT22;2167;53.448;9.984;2022-12-13T09:25:14;-1.90;17.40
4308;DHT22;2167;53.448;9.984;2022-12-13T09:27:40;-1.90;17.70
4308;DHT22;2167;53.448;9.984;2022-12-13T09:30:06;-1.80;17.90
4308;DHT22;2167;53.448;9.984;2022-12-13T09:32:34;-1.80;17.90
4308;DHT22;2167;53.448;9.984;2022-12-13T09:35:00;-1.80;17.80
4308;DHT22;2167;53.448;9.984;2022-12-13T09:37:27;-1.90;17.90
4308;DHT22;2167;53.448;9.984;2022-12-13T09:39:53;-1.80;18.60
4308;DHT22;2167;53.448;9.984;2022-12-13T09:42:24;-1.90;19.00
4308;DHT22;2167;53.448;9.984;2022-12-13T09:44:57;-1.80;19.40
4308;DHT22;2167;53.448;9.984;2022-12-13T09:47:33;-1.80;19.30
4308;DHT22;2167;53.448;9.984;2022-12-13T09:50:00;-1.80;19.70
4308;DHT22;2167;53.448;9.984;2022-12-13T09:52:29;-1.70;19.50
4308;DHT22;2167;53.448;9.984;2022-12-13T09:55:01;-1.60;19.10
4308;DHT22;2167;53.448;9.984;2022-12-13T09:57:28;-1.60;18.20
4308;DHT22;2167;53.448;9.984;2022-12-13T09:59:55;-1.60;17.80
4308;DHT22;2167;53.448;9.984;2022-12-13T10:02:27;-1.50;17.60
4308;DHT22;2167;53.448;9.984;2022-12-13T10:04:56;-1.50;17.60
4308;DHT22;2167;53.448;9.984;2022-12-13T10:07:27;-1.50;17.50
4308;DHT22;2167;53.448;9.984;2022-12-13T10:09:59;-1.40;17.20
4308;DHT22;2167;53.448;9.984;2022-12-13T10:12:27;-1.40;17.20
4308;DHT22;2167;53.448;9.984;2022-12-13T10:14:58;-1.40;17.20
4308;DHT22;2167;53.448;9.984;2022-12-13T10:17:28;-1.30;17.30
4308;DHT22;2167;53.448;9.984;2022-12-13T10:19:56;-1.30;17.40
4308;DHT22;2167;53.448;9.984;2022-12-13T10:22:22;-1.20;17.50
4308;DHT22;2167;53.448;9.984;2022-12-13T10:24:56;-1.00;17.70
4308;DHT22;2167;53.448;9.984;2022-12-13T10:27:42;-0.90;17.40
4308;DHT22;2167;53.448;9.984;2022-12-13T10:30:24;-0.80;16.60
4308;DHT22;2167;53.448;9.984;2022-12-13T10:33:02;-0.80;15.00
4308;DHT22;2167;53.448;9.984;2022-12-13T10:35:38;-0.70;13.60
4308;DHT22;2167;53.448;9.984;2022-12-13T10:40:40;-0.60;14.40
4308;DHT22;2167;53.448;9.984;2022-12-13T10:43:12;-0.50;13.50
4308;DHT22;2167;53.448;9.984;2022-12-13T10:46:03;-0.40;13.40
4308;DHT22;2167;53.448;9.984;2022-12-13T10:48:45;-0.30;13.50
4308;DHT22;2167;53.448;9.984;2022-12-13T10:51:14;-0.20;12.50
4308;DHT22;2167;53.448;9.984;2022-12-13T10:53:55;-0.20;11.30
4308;DHT22;2167;53.448;9.984;2022-12-13T10:56:31;-0.20;11.70
4308;DHT22;2167;53.448;9.984;2022-12-13T10:59:23;-0.10;11.40
4308;DHT22;2167;53.448;9.984;2022-12-13T11:01:50;0.00;10.80
4308;DHT22;2167;53.448;9.984;2022-12-13T11:04:42;0.00;10.20
4308;DHT22;2167;53.448;9.984;2022-12-13T11:07:31;0.00;9.00
4308;DHT22;2167;53.448;9.984;2022-12-13T11:10:01;0.00;9.10
4308;DHT22;2167;53.448;9.984;2022-12-13T11:12:41;0.00;8.30
4308;DHT22;2167;53.448;9.984;2022-12-13T11:15:30;0.00;8.50
4308;DHT22;2167;53.448;9.984;2022-12-13T11:18:03;-0.10;7.90
4308;DHT22;2167;53.448;9.984;2022-12-13T11:20:36;-0.10;8.40
4308;DHT22;2167;53.448;9.984;2022-12-13T11:23:30;0.00;9.20
4308;DHT22;2167;53.448;9.984;2022-12-13T11:26:08;0.10;7.90
4308;DHT22;2167;53.448;9.984;2022-12-13T11:31:42;0.10;5.70
4308;DHT22;2167;53.448;9.984;2022-12-13T11:37:27;0.00;4.30
4308;DHT22;2167;53.448;9.984;2022-12-13T11:40:21;-0.10;4.80
4308;DHT22;2167;53.448;9.984;2022-12-13T11:45:30;-0.20;6.20
4308;DHT22;2167;53.448;9.984;2022-12-13T11:50:37;-0.20;6.70
4308;DHT22;2167;53.448;9.984;2022-12-13T12:01:28;-0.10;7.00
4308;DHT22;2167;53.448;9.984;2022-12-13T12:07:11;0.10;5.80
4308;DHT22;2167;53.448;9.984;2022-12-13T12:12:35;0.20;4.30
4308;DHT22;2167;53.448;9.984;2022-12-13T12:15:45;0.20;4.00
4308;DHT22;2167;53.448;9.984;2022-12-13T12:18:28;0.20;3.30
4308;DHT22;2167;53.448;9.984;2022-12-13T12:27:17;0.10;3.40
4308;DHT22;2167;53.448;9.984;2022-12-13T12:30:19;0.10;3.40
4308;DHT22;2167;53.448;9.984;2022-12-13T12:35:50;0.00;4.00
4308;DHT22;2167;53.448;9.984;2022-12-13T12:43:43;0.10;5.00
4308;DHT22;2167;53.448;9.984;2022-12-13T12:57:58;0.20;5.20
4308;DHT22;2167;53.448;9.984;2022-12-13T13:00:22;0.20;5.00
4308;DHT22;2167;53.448;9.984;2022-12-13T13:08:23;0.10;7.30
4308;DHT22;2167;53.448;9.984;2022-12-13T13:10:51;0.10;8.10
4308;DHT22;2167;53.448;9.984;2022-12-13T13:18:53;0.10;10.00
4308;DHT22;2167;53.448;9.984;2022-12-13T13:26:31;0.00;12.00
4308;DHT22;2167;53.448;9.984;2022-12-13T13:34:49;0.00;13.50
4308;DHT22;2167;53.448;9.984;2022-12-13T13:39:56;0.20;13.60
4308;DHT22;2167;53.448;9.984;2022-12-13T13:42:26;0.20;13.50
4308;DHT22;2167;53.448;9.984;2022-12-13T13:44:59;0.30;13.40
4308;DHT22;2167;53.448;9.984;2022-12-13T13:47:37;0.30;12.00
4308;DHT22;2167;53.448;9.984;2022-12-13T13:50:16;0.40;11.30
4308;DHT22;2167;53.448;9.984;2022-12-13T14:06:40;0.50;10.40
4308;DHT22;2167;53.448;9.984;2022-12-13T14:09:45;0.50;10.70
4308;DHT22;2167;53.448;9.984;2022-12-13T14:17:45;0.50;11.00
4308;DHT22;2167;53.448;9.984;2022-12-13T14:22:52;0.60;10.40
4308;DHT22;2167;53.448;9.984;2022-12-13T14:27:53;0.50;10.10
4308;DHT22;2167;53.448;9.984;2022-12-13T14:30:21;0.50;10.10
4308;DHT22;2167;53.448;9.984;2022-12-13T14:32:48;0.40;9.90
4308;DHT22;2167;53.448;9.984;2022-12-13T14:35:29;0.40;10.00
4308;DHT22;2167;53.448;9.984;2022-12-13T14:38:05;0.30;10.10
4308;DHT22;2167;53.448;9.984;2022-12-13T14:40:53;0.30;10.70
4308;DHT22;2167;53.448;9.984;2022-12-13T14:43:25;0.30;10.40
4308;DHT22;2167;53.448;9.984;2022-12-13T14:46:06;0.30;10.40
4308;DHT22;2167;53.448;9.984;2022-12-13T14:48:35;0.30;10.60
4308;DHT22;2167;53.448;9.984;2022-12-13T14:51:02;0.30;10.50
4308;DHT22;2167;53.448;9.984;2022-12-13T14:53:37;0.20;10.80
4308;DHT22;2167;53.448;9.984;2022-12-13T14:56:13;0.10;11.00
4308;DHT22;2167;53.448;9.984;2022-12-13T14:58:50;0.10;12.00
4308;DHT22;2167;53.448;9.984;2022-12-13T15:04:35;-0.10;13.50
4308;DHT22;2167;53.448;9.984;2022-12-13T15:07:05;-0.10;13.70
4308;DHT22;2167;53.448;9.984;2022-12-13T15:09:38;-0.10;14.00
4308;DHT22;2167;53.448;9.984;2022-12-13T15:12:15;-0.20;14.30
4308;DHT22;2167;53.448;9.984;2022-12-13T15:14:44;-0.20;14.40
4308;DHT22;2167;53.448;9.984;2022-12-13T15:17:25;-0.30;14.60
4308;DHT22;2167;53.448;9.984;2022-12-13T15:19:51;-0.30;15.10
4308;DHT22;2167;53.448;9.984;2022-12-13T15:22:17;-0.40;15.00
4308;DHT22;2167;53.448;9.984;2022-12-13T15:24:44;-0.30;15.10
4308;DHT22;2167;53.448;9.984;2022-12-13T15:27:15;-0.40;15.20
4308;DHT22;2167;53.448;9.984;2022-12-13T15:29:42;-0.40;15.30
4308;DHT22;2167;53.448;9.984;2022-12-13T15:32:13;-0.50;15.40
4308;DHT22;2167;53.448;9.984;2022-12-13T15:34:41;-0.50;15.70
4308;DHT22;2167;53.448;9.984;2022-12-13T15:37:26;-0.40;15.40
4308;DHT22;2167;53.448;9.984;2022-12-13T15:39:54;-0.40;15.40
4308;DHT22;2167;53.448;9.984;2022-12-13T15:42:28;-0.50;15.70
4308;DHT22;2167;53.448;9.984;2022-12-13T15:44:56;-0.50;16.30
4308;DHT22;2167;53.448;9.984;2022-12-13T15:47:23;-0.50;16.70
4308;DHT22;2167;53.448;9.984;2022-12-13T15:54:55;-0.60;15.40
4308;DHT22;2167;53.448;9.984;2022-12-13T15:57:26;-0.60;14.70
4308;DHT22;2167;53.448;9.984;2022-12-13T16:00:24;-0.70;13.20
4308;DHT22;2167;53.448;9.984;2022-12-13T16:03:01;-0.80;12.50
4308;DHT22;2167;53.448;9.984;2022-12-13T16:08:37;-0.90;12.90
4308;DHT22;2167;53.448;9.984;2022-12-13T16:11:04;-1.00;13.40
4308;DHT22;2167;53.448;9.984;2022-12-13T16:13:36;-1.00;14.30
4308;DHT22;2167;53.448;9.984;2022-12-13T16:18:43;-1.10;15.20
4308;DHT22;2167;53.448;9.984;2022-12-13T16:21:09;-1.20;15.00
4308;DHT22;2167;53.448;9.984;2022-12-13T16:23:35;-1.30;14.90
4308;DHT22;2167;53.448;9.984;2022-12-13T16:26:01;-1.30;15.60
4308;DHT22;2167;53.448;9.984;2022-12-13T16:28:26;-1.40;15.30
4308;DHT22;2167;53.448;9.984;2022-12-13T16:33:22;-1.40;15.30
4308;DHT22;2167;53.448;9.984;2022-12-13T16:35:55;-1.50;15.60
4308;DHT22;2167;53.448;9.984;2022-12-13T16:38:20;-1.50;16.00
4308;DHT22;2167;53.448;9.984;2022-12-13T16:40:48;-1.50;16.60
4308;DHT22;2167;53.448;9.984;2022-12-13T16:43:17;-1.60;16.80
4308;DHT22;2167;53.448;9.984;2022-12-13T16:45:48;-1.60;17.20
4308;DHT22;2167;53.448;9.984;2022-12-13T16:48:20;-1.60;18.00
4308;DHT22;2167;53.448;9.984;2022-12-13T16:50:51;-1.50;18.60
4308;DHT22;2167;53.448;9.984;2022-12-13T16:53:17;-1.50;17.80
4308;DHT22;2167;53.448;9.984;2022-12-13T16:55:44;-1.50;17.00
4308;DHT22;2167;53.448;9.984;2022-12-13T16:58:13;-1.50;17.00
4308;DHT22;2167;53.448;9.984;2022-12-13T17:00:39;-1.60;17.10
4308;DHT22;2167;53.448;9.984;2022-12-13T17:03:05;-1.60;17.70
4308;DHT22;2167;53.448;9.984;2022-12-13T17:05:33;-1.60;17.90
4308;DHT22;2167;53.448;9.984;2022-12-13T17:07:59;-1.60;18.30
4308;DHT22;2167;53.448;9.984;2022-12-13T17:10:25;-1.60;18.90
4308;DHT22;2167;53.448;9.984;2022-12-13T17:12:53;-1.60;19.30
4308;DHT22;2167;53.448;9.984;2022-12-13T17:15:19;-1.60;19.70
4308;DHT22;2167;53.448;9.984;2022-12-13T17:17:45;-1.60;19.50
4308;DHT22;2167;53.448;9.984;2022-12-13T17:20:14;-1.50;19.30
4308;DHT22;2167;53.448;9.984;2022-12-13T17:22:41;-1.50;19.10
4308;DHT22;2167;53.448;9.984;2022-12-13T17:25:08;-1.50;19.00
4308;DHT22;2167;53.448;9.984;2022-12-13T17:27:34;-1.50;18.90
4308;DHT22;2167;53.448;9.984;2022-12-13T17:30:00;-1.50;18.80
4308;DHT22;2167;53.448;9.984;2022-12-13T17:32:27;-1.60;18.80
4308;DHT22;2167;53.448;9.984;2022-12-13T17:34:54;-1.60;18.90
4308;DHT22;2167;53.448;9.984;2022-12-13T17:37:27;-1.60;18.80
4308;DHT22;2167;53.448;9.984;2022-12-13T17:39:52;-1.70;19.00
4308;DHT22;2167;53.448;9.984;2022-12-13T17:42:18;-1.70;19.00
4308;DHT22;2167;53.448;9.984;2022-12-13T17:44:43;-1.80;19.10
4308;DHT22;2167;53.448;9.984;2022-12-13T17:47:09;-1.90;19.50
4308;DHT22;2167;53.448;9.984;2022-12-13T17:49:35;-1.90;19.70
4308;DHT22;2167;53.448;9.984;2022-12-13T17:52:00;-1.90;19.90
4308;DHT22;2167;53.448;9.984;2022-12-13T17:54:27;-2.00;19.90
4308;DHT22;2167;53.448;9.984;2022-12-13T17:56:53;-2.00;20.00
4308;DHT22;2167;53.448;9.984;2022-12-13T17:59:19;-2.00;20.10
4308;DHT22;2167;53.448;9.984;2022-12-13T18:01:45;-2.10;20.30
4308;DHT22;2167;53.448;9.984;2022-12-13T18:04:12;-2.10;20.60
4308;DHT22;2167;53.448;9.984;2022-12-13T18:06:39;-2.10;20.50
4308;DHT22;2167;53.448;9.984;2022-12-13T18:09:05;-2.10;20.70
4308;DHT22;2167;53.448;9.984;2022-12-13T18:11:31;-2.10;21.00
4308;DHT22;2167;53.448;9.984;2022-12-13T18:13:57;-2.20;21.20
4308;DHT22;2167;53.448;9.984;2022-12-13T18:16:24;-2.30;21.60
4308;DHT22;2167;53.448;9.984;2022-12-13T18:18:53;-2.30;22.00
4308;DHT22;2167;53.448;9.984;2022-12-13T18:21:20;-2.30;22.20
4308;DHT22;2167;53.448;9.984;2022-12-13T18:23:46;-2.40;22.30
4308;DHT22;2167;53.448;9.984;2022-12-13T18:26:14;-2.30;22.50
4308;DHT22;2167;53.448;9.984;2022-12-13T18:28:43;-2.30;22.40
4308;DHT22;2167;53.448;9.984;2022-12-13T18:31:10;-2.40;22.20
4308;DHT22;2167;53.448;9.984;2022-12-13T18:33:37;-2.40;21.70
4308;DHT22;2167;53.448;9.984;2022-12-13T18:36:03;-2.30;21.50
4308;DHT22;2167;53.448;9.984;2022-12-13T18:38:29;-2.40;21.20
4308;DHT22;2167;53.448;9.984;2022-12-13T18:40:55;-2.40;21.00
4308;DHT22;2167;53.448;9.984;2022-12-13T18:43:24;-2.50;20.90
4308;DHT22;2167;53.448;9.984;2022-12-13T18:45:51;-2.50;20.90